createdAt,value
2023-03-30T00:01:24.811Z,55.30
2023-03-30T00:03:55.064Z,55.20
2023-03-30T00:06:22.487Z,55.30
2023-03-30T00:08:57.688Z,55.30
2023-03-30T00:11:35.366Z,55.30
2023-03-30T00:14:01.930Z,55.30
2023-03-30T00:16:28.691Z,55.40
2023-03-30T00:18:55.541Z,55.40
2023-03-30T00:21:23.361Z,55.40
2023-03-30T00:23:52.030Z,55.40
2023-03-30T00:26:18.852Z,55.50
2023-03-30T00:28:46.268Z,55.60
2023-03-30T00:31:17.873Z,55.60
2023-03-30T00:33:47.373Z,55.70
2023-03-30T00:36:17.888Z,55.70
2023-03-30T00:38:45.515Z,55.70
2023-03-30T00:41:12.358Z,55.60
2023-03-30T00:43:59.595Z,55.70
2023-03-30T00:46:36.027Z,55.40
2023-03-30T00:49:10.275Z,55.40
2023-03-30T00:51:40.448Z,55.20
2023-03-30T00:54:16.513Z,55.10
2023-03-30T00:56:43.244Z,54.90
2023-03-30T00:59:19.313Z,55.00
2023-03-30T01:01:50.239Z,54.90
2023-03-30T01:04:17.255Z,54.70
2023-03-30T01:06:47.287Z,54.50
2023-03-30T01:09:18.306Z,54.50
2023-03-30T01:11:47.263Z,54.40
2023-03-30T01:14:16.050Z,54.10
2023-03-30T01:17:01.505Z,54.10
2023-03-30T01:19:48.596Z,54.00
2023-03-30T01:22:24.130Z,54.00
2023-03-30T01:25:10.575Z,53.90
2023-03-30T01:28:14.675Z,54.00
2023-03-30T01:31:05.868Z,53.70
2023-03-30T01:34:10.074Z,53.80
2023-03-30T01:36:59.387Z,53.90
2023-03-30T01:39:53.919Z,53.90
2023-03-30T01:43:12.694Z,53.90
2023-03-30T01:45:52.473Z,54.00
2023-03-30T01:48:26.164Z,54.00
2023-03-30T01:51:02.277Z,54.00
2023-03-30T01:53:35.749Z,54.00
2023-03-30T01:56:15.449Z,54.00
2023-03-30T01:59:01.723Z,53.90
2023-03-30T02:01:34.284Z,53.80
2023-03-30T02:04:03.819Z,54.10
2023-03-30T02:06:39.727Z,54.80
2023-03-30T02:09:20.168Z,54.00
2023-03-30T02:11:50.959Z,54.00
2023-03-30T02:14:20.454Z,54.00
2023-03-30T02:16:50.455Z,54.00
2023-03-30T02:19:18.710Z,53.90
2023-03-30T02:21:47.754Z,53.90
2023-03-30T02:24:23.753Z,53.90
2023-03-30T02:26:51.730Z,53.90
2023-03-30T02:29:22.599Z,53.90
2023-03-30T02:31:52.973Z,53.90
2023-03-30T02:34:25.194Z,53.90
2023-03-30T02:36:55.865Z,53.80
2023-03-30T02:39:55.502Z,53.70
2023-03-30T02:42:51.167Z,53.50
2023-03-30T02:45:51.384Z,53.70
2023-03-30T02:48:41.184Z,53.60
2023-03-30T02:51:20.271Z,53.50
2023-03-30T02:54:35.645Z,53.50
2023-03-30T02:57:17.468Z,53.50
2023-03-30T02:59:53.251Z,53.70
2023-03-30T03:02:24.851Z,53.70
2023-03-30T03:05:03.778Z,53.80
2023-03-30T03:07:56.781Z,53.80
2023-03-30T03:10:24.458Z,53.80
2023-03-30T03:12:51.358Z,53.90
2023-03-30T03:15:18.330Z,54.10
2023-03-30T03:18:02.580Z,54.10
2023-03-30T03:20:30.442Z,54.20
2023-03-30T03:22:58.058Z,54.20
2023-03-30T03:25:28.099Z,54.20
2023-03-30T03:27:59.307Z,54.20
2023-03-30T03:30:28.133Z,54.20
2023-03-30T03:33:05.212Z,54.40
2023-03-30T03:35:34.833Z,54.50
2023-03-30T03:38:07.556Z,54.60
2023-03-30T03:40:34.579Z,54.60
2023-03-30T03:43:04.502Z,54.70
2023-03-30T03:45:34.253Z,54.80
2023-03-30T03:48:03.975Z,54.80
2023-03-30T03:50:46.620Z,54.80
2023-03-30T03:53:13.318Z,54.80
2023-03-30T03:55:39.874Z,55.00
2023-03-30T03:58:09.266Z,55.00
2023-03-30T04:00:39.841Z,55.00
2023-03-30T04:03:12.181Z,55.10
2023-03-30T04:05:41.672Z,55.10
2023-03-30T04:08:11.730Z,55.20
2023-03-30T04:10:46.739Z,55.30
2023-03-30T04:13:36.707Z,55.20
2023-03-30T04:16:32.783Z,55.30
2023-03-30T04:19:31.421Z,55.20
2023-03-30T04:22:15.322Z,55.30
2023-03-30T04:25:27.068Z,55.30
2023-03-30T04:28:23.123Z,55.30
2023-03-30T04:31:13.110Z,55.30
2023-03-30T04:34:04.630Z,55.40
2023-03-30T04:37:00.136Z,56.00
2023-03-30T04:40:09.700Z,55.40
2023-03-30T04:43:02.557Z,55.40
2023-03-30T04:45:54.447Z,55.30
2023-03-30T04:48:50.344Z,55.40
2023-03-30T04:51:19.655Z,55.50
2023-03-30T04:54:05.840Z,55.40
2023-03-30T04:56:56.756Z,55.40
2023-03-30T04:59:46.489Z,55.40
2023-03-30T05:02:31.936Z,55.30
2023-03-30T05:05:17.108Z,55.30
2023-03-30T05:07:53.769Z,55.30
2023-03-30T05:10:38.981Z,55.20
2023-03-30T05:13:41.735Z,55.10
2023-03-30T05:16:26.908Z,55.00
2023-03-30T05:19:09.346Z,55.00
2023-03-30T05:22:08.391Z,54.90
2023-03-30T05:24:52.001Z,54.80
2023-03-30T05:27:37.066Z,55.00
2023-03-30T05:30:36.182Z,54.60
2023-03-30T05:33:25.677Z,54.50
2023-03-30T05:36:12.504Z,54.40
2023-03-30T05:38:59.438Z,54.30
2023-03-30T05:41:53.404Z,54.40
2023-03-30T05:44:39.439Z,54.30
2023-03-30T05:47:41.090Z,54.30
2023-03-30T05:50:17.062Z,54.40
2023-03-30T05:52:53.585Z,54.50
2023-03-30T05:55:31.495Z,54.60
2023-03-30T05:58:08.396Z,54.80
2023-03-30T06:00:49.653Z,55.00
2023-03-30T06:03:30.303Z,55.10
2023-03-30T06:05:57.093Z,55.90
2023-03-30T06:08:24.326Z,55.40
2023-03-30T06:10:58.624Z,55.70
2023-03-30T06:13:27.729Z,55.90
2023-03-30T06:15:55.310Z,56.00
2023-03-30T06:18:25.673Z,56.10
2023-03-30T06:20:57.839Z,56.10
2023-03-30T06:23:26.152Z,56.20
2023-03-30T06:26:01.290Z,56.10
2023-03-30T06:28:32.170Z,56.10
2023-03-30T06:31:03.156Z,56.10
2023-03-30T06:33:30.243Z,56.10
2023-03-30T06:35:58.695Z,56.00
2023-03-30T06:38:25.520Z,55.90
2023-03-30T06:40:54.263Z,56.00
2023-03-30T06:43:25.333Z,55.90
2023-03-30T06:46:08.649Z,56.00
2023-03-30T06:48:35.575Z,56.70
2023-03-30T06:51:21.099Z,56.10
2023-03-30T06:53:48.194Z,56.00
2023-03-30T06:56:15.046Z,55.80
2023-03-30T06:59:00.032Z,55.80
2023-03-30T07:01:26.758Z,55.80
2023-03-30T07:04:11.477Z,55.70
2023-03-30T07:07:11.683Z,55.70
2023-03-30T07:09:38.506Z,57.60
2023-03-30T07:12:05.674Z,58.10
2023-03-30T07:14:35.126Z,58.20
2023-03-30T07:17:02.775Z,58.40
2023-03-30T07:19:31.146Z,58.80
2023-03-30T07:21:57.728Z,59.90
2023-03-30T07:24:26.691Z,59.40
2023-03-30T07:26:53.529Z,59.80
2023-03-30T07:29:20.692Z,59.90
2023-03-30T07:31:51.869Z,59.90
2023-03-30T07:34:21.463Z,60.10
2023-03-30T07:36:54.793Z,60.20
2023-03-30T07:39:24.194Z,60.30
2023-03-30T07:41:51.488Z,60.30
2023-03-30T07:44:18.446Z,60.50
2023-03-30T07:46:45.497Z,60.30
2023-03-30T07:49:21.111Z,60.20
2023-03-30T07:51:47.729Z,60.10
2023-03-30T07:54:22.164Z,59.80
2023-03-30T07:57:04.037Z,59.60
2023-03-30T07:59:32.814Z,59.60
2023-03-30T08:02:12.522Z,59.60
2023-03-30T08:04:49.121Z,59.50
2023-03-30T08:07:22.477Z,59.60
2023-03-30T08:09:54.304Z,59.70
2023-03-30T08:12:21.198Z,59.70
2023-03-30T08:14:47.909Z,59.60
2023-03-30T08:17:15.439Z,59.80
2023-03-30T08:19:42.042Z,59.90
2023-03-30T08:22:09.036Z,60.10
2023-03-30T08:24:35.735Z,60.20
2023-03-30T08:27:02.569Z,59.80
2023-03-30T08:29:31.388Z,59.60
2023-03-30T08:31:58.012Z,59.40
2023-03-30T08:34:24.618Z,59.00
2023-03-30T08:36:51.964Z,59.00
2023-03-30T08:39:21.286Z,58.70
2023-03-30T08:41:59.407Z,58.60
2023-03-30T08:44:39.420Z,58.20
2023-03-30T08:47:16.501Z,58.00
2023-03-30T08:49:53.351Z,58.10
2023-03-30T08:52:24.463Z,57.80
2023-03-30T08:54:52.077Z,57.60
2023-03-30T08:57:42.155Z,57.40
2023-03-30T09:00:27.240Z,57.60
2023-03-30T09:03:17.080Z,58.40
2023-03-30T09:05:51.340Z,58.40
2023-03-30T09:08:29.459Z,58.50
2023-03-30T09:11:07.415Z,58.40
2023-03-30T09:13:37.618Z,57.80
2023-03-30T09:16:22.813Z,57.40
2023-03-30T09:18:56.275Z,56.80
2023-03-30T09:21:28.957Z,56.90
2023-03-30T09:24:00.784Z,56.70
2023-03-30T09:26:40.672Z,56.60
2023-03-30T09:29:26.306Z,56.40
2023-03-30T09:32:18.241Z,56.40
2023-03-30T09:34:53.077Z,56.30
2023-03-30T09:37:21.554Z,56.20
2023-03-30T09:39:49.158Z,56.40
2023-03-30T09:42:16.172Z,56.60
2023-03-30T09:44:54.840Z,57.00
2023-03-30T09:47:36.592Z,57.20
2023-03-30T09:50:16.636Z,57.40
2023-03-30T09:52:59.272Z,57.50
2023-03-30T09:55:32.598Z,57.60
2023-03-30T09:58:14.181Z,57.50
2023-03-30T10:00:40.762Z,57.40
2023-03-30T10:03:07.851Z,57.50
2023-03-30T10:05:35.548Z,57.40
2023-03-30T10:08:06.012Z,57.40
2023-03-30T10:10:36.386Z,57.30
2023-03-30T10:13:13.760Z,57.30
2023-03-30T10:15:44.029Z,57.40
2023-03-30T10:18:19.345Z,57.70
2023-03-30T10:21:06.130Z,57.60
2023-03-30T10:23:41.829Z,57.60
2023-03-30T10:26:15.339Z,57.60
2023-03-30T10:28:52.327Z,57.60
2023-03-30T10:31:18.966Z,57.70
2023-03-30T10:33:45.522Z,57.90
2023-03-30T10:36:14.224Z,57.90
2023-03-30T10:38:41.888Z,57.90
2023-03-30T10:41:11.062Z,58.00
2023-03-30T10:43:38.269Z,58.10
2023-03-30T10:46:18.677Z,57.90
2023-03-30T10:48:53.945Z,57.60
2023-03-30T10:51:26.559Z,57.40
2023-03-30T10:53:53.023Z,57.10
2023-03-30T10:56:26.041Z,57.10
2023-03-30T10:58:56.894Z,57.20
2023-03-30T11:01:23.477Z,57.00
2023-03-30T11:03:53.948Z,56.80
2023-03-30T11:06:29.909Z,56.80
2023-03-30T11:08:58.332Z,56.50
2023-03-30T11:11:32.819Z,55.30
2023-03-30T11:14:04.042Z,55.90
2023-03-30T11:16:47.719Z,56.40
2023-03-30T11:19:17.490Z,56.30
2023-03-30T11:21:56.555Z,56.20
2023-03-30T11:24:26.526Z,55.80
2023-03-30T11:27:02.059Z,55.80
2023-03-30T11:29:41.727Z,55.60
2023-03-30T11:32:14.551Z,55.50
2023-03-30T11:34:51.229Z,55.60
2023-03-30T11:37:17.737Z,55.30
2023-03-30T11:39:51.701Z,54.80
2023-03-30T11:42:26.929Z,54.80
2023-03-30T11:44:53.627Z,54.60
2023-03-30T11:47:38.796Z,54.80
2023-03-30T11:50:23.054Z,55.00
2023-03-30T11:52:56.998Z,55.10
2023-03-30T11:55:26.571Z,55.10
2023-03-30T11:58:06.877Z,55.10
2023-03-30T12:00:34.325Z,55.10
2023-03-30T12:03:16.884Z,55.80
2023-03-30T12:05:49.254Z,55.50
2023-03-30T12:08:26.314Z,55.70
2023-03-30T12:11:11.571Z,55.80
2023-03-30T12:13:50.279Z,55.90
2023-03-30T12:16:26.910Z,56.00
2023-03-30T12:19:05.978Z,56.60
2023-03-30T12:21:34.522Z,56.30
2023-03-30T12:24:01.250Z,56.40
2023-03-30T12:26:29.272Z,56.50
2023-03-30T12:29:36.096Z,56.50
2023-03-30T12:31:50.024Z,56.40
2023-03-30T12:34:20.779Z,56.50
2023-03-30T12:36:49.511Z,56.30
2023-03-30T12:39:26.550Z,56.10
2023-03-30T12:41:58.019Z,55.90
2023-03-30T12:44:35.055Z,55.80
2023-03-30T12:47:12.479Z,56.00
2023-03-30T12:49:46.002Z,55.80
2023-03-30T12:52:14.363Z,55.60
2023-03-30T12:54:54.325Z,55.10
2023-03-30T12:57:39.353Z,55.10
2023-03-30T13:00:09.367Z,55.00
2023-03-30T13:02:57.724Z,55.00
2023-03-30T13:05:28.747Z,55.10
2023-03-30T13:07:55.869Z,55.30
2023-03-30T13:10:31.583Z,55.30
2023-03-30T13:12:58.959Z,55.10
2023-03-30T13:15:33.400Z,55.10
2023-03-30T13:18:01.658Z,55.60
2023-03-30T13:20:35.317Z,55.30
2023-03-30T13:23:02.031Z,55.60
2023-03-30T13:25:36.279Z,55.60
2023-03-30T13:28:22.756Z,56.00
2023-03-30T13:30:49.530Z,56.20
2023-03-30T13:33:21.955Z,56.40
2023-03-30T13:35:56.252Z,56.60
2023-03-30T13:38:29.024Z,56.50
2023-03-30T13:41:18.506Z,56.30
2023-03-30T13:44:03.665Z,56.40
2023-03-30T13:46:34.602Z,56.50
2023-03-30T13:49:10.100Z,56.10
2023-03-30T13:51:37.760Z,56.00
2023-03-30T13:54:13.718Z,55.20
2023-03-30T13:56:42.856Z,54.60
2023-03-30T13:59:14.085Z,54.40
2023-03-30T14:01:48.034Z,54.60
2023-03-30T14:04:15.287Z,55.00
2023-03-30T14:06:46.946Z,56.50
2023-03-30T14:09:14.473Z,57.90
2023-03-30T14:11:49.125Z,57.90
2023-03-30T14:14:36.240Z,54.60
2023-03-30T14:17:14.013Z,56.90
2023-03-30T14:19:51.092Z,57.10
2023-03-30T14:22:21.660Z,57.40
2023-03-30T14:24:58.317Z,56.60
2023-03-30T14:27:24.809Z,57.00
2023-03-30T14:29:53.689Z,54.90
2023-03-30T14:32:32.211Z,54.70
2023-03-30T14:35:01.179Z,54.50
2023-03-30T14:37:30.819Z,52.50
2023-03-30T14:39:58.341Z,50.70
2023-03-30T14:42:31.133Z,51.10
2023-03-30T14:44:57.978Z,49.70
2023-03-30T14:47:25.743Z,48.10
2023-03-30T14:50:02.740Z,46.30
2023-03-30T14:52:42.106Z,46.10
2023-03-30T14:55:16.728Z,46.40
2023-03-30T14:57:46.216Z,46.40
2023-03-30T15:00:24.625Z,46.10
2023-03-30T15:02:53.040Z,46.20
2023-03-30T15:05:20.994Z,47.90
2023-03-30T15:07:51.364Z,49.40
2023-03-30T15:10:40.681Z,51.00
2023-03-30T15:13:07.745Z,51.00
2023-03-30T15:15:34.849Z,50.20
2023-03-30T15:18:04.445Z,50.40
2023-03-30T15:20:31.530Z,51.30
2023-03-30T15:22:59.536Z,52.10
2023-03-30T15:25:33.750Z,52.20
2023-03-30T15:28:06.513Z,52.40
2023-03-30T15:30:35.401Z,51.60
2023-03-30T15:33:02.370Z,50.70
2023-03-30T15:35:31.168Z,49.90
2023-03-30T15:37:59.305Z,50.10
2023-03-30T15:40:36.798Z,49.30
2023-03-30T15:43:12.259Z,48.40
2023-03-30T15:45:38.979Z,46.40
2023-03-30T15:48:06.961Z,45.60
2023-03-30T15:50:35.432Z,45.60
2023-03-30T15:53:02.239Z,45.90
2023-03-30T15:55:29.789Z,46.90
2023-03-30T15:57:56.282Z,46.60
2023-03-30T16:00:30.883Z,46.70
2023-03-30T16:02:58.887Z,46.00
2023-03-30T16:05:29.645Z,45.10
2023-03-30T16:07:56.523Z,43.60
2023-03-30T16:10:26.310Z,42.60
2023-03-30T16:12:54.207Z,42.60
2023-03-30T16:15:22.211Z,41.80
2023-03-30T16:17:49.052Z,42.10
2023-03-30T16:20:17.017Z,42.00
2023-03-30T16:22:43.645Z,42.80
2023-03-30T16:25:10.373Z,43.40
2023-03-30T16:27:37.785Z,43.90
2023-03-30T16:30:15.701Z,48.00
2023-03-30T16:32:42.397Z,49.40
2023-03-30T16:35:09.534Z,50.60
2023-03-30T16:37:36.380Z,52.40
2023-03-30T16:40:10.205Z,53.20
2023-03-30T16:42:37.868Z,55.50
2023-03-30T16:45:04.561Z,57.50
2023-03-30T16:47:31.757Z,57.30
2023-03-30T16:49:59.152Z,56.70
2023-03-30T16:52:25.682Z,58.30
2023-03-30T16:54:52.630Z,60.10
2023-03-30T16:57:19.188Z,59.60
2023-03-30T16:59:45.697Z,60.60
2023-03-30T17:02:16.805Z,61.90
2023-03-30T17:04:45.301Z,63.50
2023-03-30T17:07:14.214Z,65.00
2023-03-30T17:09:41.143Z,65.20
2023-03-30T17:12:11.280Z,63.90
2023-03-30T17:14:42.988Z,63.80
2023-03-30T17:17:09.710Z,63.60
2023-03-30T17:19:36.300Z,63.30
2023-03-30T17:22:06.764Z,64.10
2023-03-30T17:24:33.289Z,64.80
2023-03-30T17:27:02.469Z,65.10
2023-03-30T17:29:28.997Z,65.50
2023-03-30T17:31:57.633Z,66.20
2023-03-30T17:34:26.617Z,65.70
2023-03-30T17:36:54.433Z,66.20
2023-03-30T17:39:23.080Z,66.10
2023-03-30T17:41:51.844Z,65.50
2023-03-30T17:44:28.139Z,65.10
2023-03-30T17:46:57.328Z,63.90
2023-03-30T17:49:23.798Z,64.10
2023-03-30T17:51:52.891Z,64.30
2023-03-30T17:54:20.454Z,64.40
2023-03-30T17:56:49.131Z,64.50
2023-03-30T17:59:18.263Z,64.70
2023-03-30T18:01:44.830Z,64.70
2023-03-30T18:04:11.399Z,64.70
2023-03-30T18:06:39.040Z,64.70
2023-03-30T18:09:08.233Z,64.70
2023-03-30T18:11:34.987Z,64.50
2023-03-30T18:14:01.912Z,64.40
2023-03-30T18:16:28.445Z,64.30
2023-03-30T18:18:55.875Z,64.00
2023-03-30T18:21:23.732Z,63.80
2023-03-30T18:23:50.490Z,63.90
2023-03-30T18:26:17.001Z,63.90
2023-03-30T18:28:46.248Z,63.90
2023-03-30T18:31:12.870Z,63.90
2023-03-30T18:33:39.669Z,63.90
2023-03-30T18:36:07.960Z,63.90
2023-03-30T18:38:38.474Z,63.90
2023-03-30T18:41:04.979Z,63.70
2023-03-30T18:43:31.505Z,63.60
2023-03-30T18:46:01.712Z,63.60
2023-03-30T18:48:29.353Z,63.50
2023-03-30T18:50:56.317Z,63.40
2023-03-30T18:53:27.142Z,63.50
2023-03-30T18:55:56.851Z,63.70
2023-03-30T18:58:26.146Z,63.00
2023-03-30T19:00:55.641Z,63.60
2023-03-30T19:03:23.401Z,63.70
2023-03-30T19:05:50.208Z,63.80
2023-03-30T19:08:18.081Z,63.80
2023-03-30T19:10:45.368Z,63.80
2023-03-30T19:13:16.178Z,63.80
2023-03-30T19:15:49.245Z,63.90
2023-03-30T19:18:17.481Z,63.60
2023-03-30T19:20:44.257Z,64.40
2023-03-30T19:23:12.683Z,63.60
2023-03-30T19:25:40.844Z,63.30
2023-03-30T19:28:07.674Z,63.40
2023-03-30T19:30:38.399Z,63.30
2023-03-30T19:33:07.970Z,63.10
2023-03-30T19:35:39.793Z,63.10
2023-03-30T19:38:06.429Z,63.00
2023-03-30T19:40:32.974Z,63.60
2023-03-30T19:43:01.866Z,63.30
2023-03-30T19:45:28.490Z,62.80
2023-03-30T19:47:56.408Z,62.30
2023-03-30T19:50:24.762Z,61.90
2023-03-30T19:52:51.606Z,61.60
2023-03-30T19:55:19.618Z,61.20
2023-03-30T19:57:46.264Z,61.20
2023-03-30T20:00:15.185Z,61.00
2023-03-30T20:02:42.964Z,60.90
2023-03-30T20:05:16.208Z,60.90
2023-03-30T20:07:43.585Z,60.90
2023-03-30T20:10:11.388Z,60.70
2023-03-30T20:12:38.019Z,60.70
2023-03-30T20:15:09.572Z,60.60
2023-03-30T20:17:39.060Z,60.40
2023-03-30T20:20:08.996Z,60.40
2023-03-30T20:22:41.568Z,60.30
2023-03-30T20:25:13.100Z,60.30
2023-03-30T20:27:40.065Z,60.20
2023-03-30T20:30:09.668Z,60.20
2023-03-30T20:32:36.261Z,60.30
2023-03-30T20:35:07.923Z,60.20
2023-03-30T20:37:36.409Z,60.20
2023-03-30T20:40:09.424Z,60.20
2023-03-30T20:43:02.943Z,60.30
2023-03-30T20:47:50.012Z,60.10
2023-03-30T20:50:16.909Z,61.00
2023-03-30T20:52:43.485Z,61.50
2023-03-30T20:55:10.111Z,61.80
2023-03-30T20:57:36.799Z,62.10
2023-03-30T21:00:07.043Z,62.40
2023-03-30T21:02:34.437Z,62.50
2023-03-30T21:05:01.201Z,62.70
2023-03-30T21:07:28.280Z,62.90
2023-03-30T21:09:55.014Z,63.10
2023-03-30T21:12:23.884Z,63.20
2023-03-30T21:14:50.456Z,63.20
2023-03-30T21:17:17.093Z,63.40
2023-03-30T21:19:46.130Z,63.60
2023-03-30T21:22:21.253Z,63.90
2023-03-30T21:24:47.790Z,63.70
2023-03-30T21:27:14.493Z,63.90
2023-03-30T21:29:41.400Z,63.90
2023-03-30T21:32:11.466Z,64.10
2023-03-30T21:34:38.040Z,64.50
2023-03-30T21:37:04.769Z,64.40
2023-03-30T21:39:34.057Z,64.70
2023-03-30T21:42:01.005Z,64.70
2023-03-30T21:44:32.842Z,64.70
2023-03-30T21:46:59.514Z,64.80
2023-03-30T21:49:26.154Z,64.80
2023-03-30T21:51:53.161Z,64.70
2023-03-30T21:54:19.923Z,64.70
2023-03-30T21:56:48.910Z,64.70
2023-03-30T21:59:15.643Z,64.70
2023-03-30T22:01:46.077Z,64.60
2023-03-30T22:04:13.636Z,64.70
2023-03-30T22:06:40.472Z,64.50
2023-03-30T22:09:09.574Z,64.60
2023-03-30T22:11:36.209Z,64.70
2023-03-30T22:14:03.718Z,64.60
2023-03-30T22:16:36.479Z,64.60
2023-03-30T22:19:04.303Z,64.70
2023-03-30T22:21:33.964Z,64.70
2023-03-30T22:24:09.346Z,64.70
2023-03-30T22:26:38.501Z,64.90
2023-03-30T22:29:05.552Z,64.70
2023-03-30T22:31:32.511Z,64.80
2023-03-30T22:34:01.844Z,64.80
2023-03-30T22:36:31.838Z,64.90
2023-03-30T22:38:59.738Z,65.00
2023-03-30T22:41:31.762Z,65.00
2023-03-30T22:43:58.520Z,65.10
2023-03-30T22:46:30.764Z,65.20
2023-03-30T22:49:01.246Z,65.30
2023-03-30T22:51:27.823Z,65.30
2023-03-30T22:53:59.117Z,65.20
2023-03-30T22:56:27.168Z,65.50
2023-03-30T22:58:57.254Z,65.30
2023-03-30T23:01:23.962Z,65.30
2023-03-30T23:03:54.277Z,65.40
2023-03-30T23:06:23.156Z,65.40
2023-03-30T23:08:52.444Z,65.50
2023-03-30T23:11:21.456Z,65.60
2023-03-30T23:13:53.836Z,65.60
2023-03-30T23:16:20.638Z,65.60
2023-03-30T23:18:50.126Z,65.60
2023-03-30T23:21:17.372Z,65.70
2023-03-30T23:23:43.967Z,65.60
2023-03-30T23:26:11.313Z,65.60
2023-03-30T23:28:41.725Z,66.20
2023-03-30T23:31:19.640Z,66.00
2023-03-30T23:33:46.291Z,65.50
2023-03-30T23:36:16.149Z,65.30
2023-03-30T23:38:42.928Z,65.40
2023-03-30T23:41:12.421Z,65.30
2023-03-30T23:43:39.025Z,65.30
2023-03-30T23:46:09.810Z,65.30
2023-03-30T23:48:36.664Z,65.40
2023-03-30T23:51:03.583Z,65.30
2023-03-30T23:53:33.079Z,65.30
2023-03-30T23:55:59.933Z,65.40
2023-03-30T23:58:26.666Z,65.30
